sensor_id;sensor_type;location;lat;lon;timestamp;pressure;altitude;pressure_sealevel;temperature;humidity
45050;BME280;61798;48.048;-1.928;2023-04-06T00:06:02;101202.75;;;7.17;100.00
45050;BME280;61798;48.048;-1.928;2023-04-06T00:09:54;101180.81;;;7.23;100.00
45050;BME280;61798;48.048;-1.928;2023-04-06T00:13:38;101180.94;;;7.22;100.00
45050;BME280;61798;48.048;-1.928;2023-04-06T00:17:26;101194.75;;;7.17;100.00
45050;BME280;61798;48.048;-1.928;2023-04-06T00:21:14;101200.50;;;7.30;100.00
45050;BME280;61798;48.048;-1.928;2023-04-06T00:24:57;101173.13;;;7.20;100.00
45050;BME280;61798;48.048;-1.928;2023-04-06T00:28:24;101200.34;;;7.32;100.00
45050;BME280;61798;48.048;-1.928;2023-04-06T00:52:11;101138.25;;;7.13;100.00
45050;BME280;61798;48.048;-1.928;2023-04-06T00:59:55;101129.03;;;7.34;100.00
45050;BME280;61798;48.048;-1.928;2023-04-06T01:12:09;101115.16;;;7.22;100.00
45050;BME280;61798;48.048;-1.928;2023-04-06T01:15:34;101120.28;;;7.50;100.00
45050;BME280;61798;48.048;-1.928;2023-04-06T01:19:24;101112.47;;;7.57;100.00
45050;BME280;61798;48.048;-1.928;2023-04-06T01:23:22;101068.00;;;7.23;100.00
45050;BME280;61798;48.048;-1.928;2023-04-06T01:27:07;101083.53;;;7.27;100.00
45050;BME280;61798;48.048;-1.928;2023-04-06T01:31:11;101106.72;;;7.35;100.00
45050;BME280;61798;48.048;-1.928;2023-04-06T01:35:12;101112.38;;;7.40;100.00
45050;BME280;61798;48.048;-1.928;2023-04-06T01:42:28;101098.75;;;7.44;100.00
45050;BME280;61798;48.048;-1.928;2023-04-06T01:45:40;101101.38;;;7.35;100.00
45050;BME280;61798;48.048;-1.928;2023-04-06T01:52:03;101102.97;;;7.55;100.00
45050;BME280;61798;48.048;-1.928;2023-04-06T01:54:44;101094.94;;;7.46;100.00
45050;BME280;61798;48.048;-1.928;2023-04-06T01:57:37;101094.78;;;7.48;100.00
45050;BME280;61798;48.048;-1.928;2023-04-06T02:05:57;101083.56;;;7.36;100.00
45050;BME280;61798;48.048;-1.928;2023-04-06T02:09:13;101085.06;;;7.38;100.00
45050;BME280;61798;48.048;-1.928;2023-04-06T02:12:19;101082.88;;;7.34;100.00
45050;BME280;61798;48.048;-1.928;2023-04-06T02:15:02;101050.47;;;7.12;100.00
45050;BME280;61798;48.048;-1.928;2023-04-06T02:17:16;101082.41;;;7.38;100.00
45050;BME280;61798;48.048;-1.928;2023-04-06T02:20:28;101034.81;;;7.08;100.00
45050;BME280;61798;48.048;-1.928;2023-04-06T02:23:25;101077.09;;;7.47;100.00
45050;BME280;61798;48.048;-1.928;2023-04-06T02:27:10;101063.22;;;7.35;100.00
45050;BME280;61798;48.048;-1.928;2023-04-06T02:30:01;101058.22;;;7.32;100.00
45050;BME280;61798;48.048;-1.928;2023-04-06T02:33:55;101073.56;;;7.38;100.00
45050;BME280;61798;48.048;-1.928;2023-04-06T02:37:48;101065.88;;;7.35;100.00
45050;BME280;61798;48.048;-1.928;2023-04-06T02:59:20;101065.19;;;7.33;100.00
45050;BME280;61798;48.048;-1.928;2023-04-06T03:18:41;101047.88;;;7.37;100.00
45050;BME280;61798;48.048;-1.928;2023-04-06T03:21:33;101056.72;;;7.37;100.00
45050;BME280;61798;48.048;-1.928;2023-04-06T03:24:26;101050.72;;;7.35;100.00
45050;BME280;61798;48.048;-1.928;2023-04-06T03:27:03;101048.72;;;7.37;100.00
45050;BME280;61798;48.048;-1.928;2023-04-06T03:29:33;101036.53;;;7.26;100.00
45050;BME280;61798;48.048;-1.928;2023-04-06T03:36:28;101043.06;;;7.32;100.00
45050;BME280;61798;48.048;-1.928;2023-04-06T03:39:19;101013.81;;;7.14;100.00
45050;BME280;61798;48.048;-1.928;2023-04-06T03:41:29;101021.00;;;7.22;100.00
45050;BME280;61798;48.048;-1.928;2023-04-06T03:43:56;100990.13;;;7.02;100.00
45050;BME280;61798;48.048;-1.928;2023-04-06T03:46:34;101041.56;;;7.38;100.00
45050;BME280;61798;48.048;-1.928;2023-04-06T03:49:10;101050.41;;;7.38;100.00
45050;BME280;61798;48.048;-1.928;2023-04-06T03:51:58;101038.22;;;7.36;100.00
45050;BME280;61798;48.048;-1.928;2023-04-06T03:54:24;100994.81;;;7.17;100.00
45050;BME280;61798;48.048;-1.928;2023-04-06T03:57:25;100959.09;;;6.93;100.00
45050;BME280;61798;48.048;-1.928;2023-04-06T04:26:04;101032.06;;;7.35;100.00
45050;BME280;61798;48.048;-1.928;2023-04-06T04:32:05;101018.19;;;7.23;100.00
45050;BME280;61798;48.048;-1.928;2023-04-06T04:37:54;101046.25;;;7.44;100.00
45050;BME280;61798;48.048;-1.928;2023-04-06T04:40:44;101039.59;;;7.40;100.00
45050;BME280;61798;48.048;-1.928;2023-04-06T04:43:49;100997.78;;;7.05;100.00
45050;BME280;61798;48.048;-1.928;2023-04-06T04:50:46;100972.50;;;7.09;100.00
45050;BME280;61798;48.048;-1.928;2023-04-06T04:58:27;101000.03;;;7.27;100.00
45050;BME280;61798;48.048;-1.928;2023-04-06T05:01:26;100961.50;;;7.04;100.00
45050;BME280;61798;48.048;-1.928;2023-04-06T05:05:05;101014.91;;;7.38;100.00
45050;BME280;61798;48.048;-1.928;2023-04-06T05:07:52;101000.91;;;7.36;100.00
45050;BME280;61798;48.048;-1.928;2023-04-06T05:10:51;100990.22;;;7.27;100.00
45050;BME280;61798;48.048;-1.928;2023-04-06T05:14:12;100940.16;;;6.96;100.00
45050;BME280;61798;48.048;-1.928;2023-04-06T05:17:06;101004.88;;;7.32;100.00
45050;BME280;61798;48.048;-1.928;2023-04-06T05:20:44;100977.66;;;7.11;100.00
45050;BME280;61798;48.048;-1.928;2023-04-06T05:23:51;100985.47;;;7.13;100.00
45050;BME280;61798;48.048;-1.928;2023-04-06T05:26:39;100957.78;;;6.97;100.00
45050;BME280;61798;48.048;-1.928;2023-04-06T05:29:37;100973.19;;;7.12;100.00
45050;BME280;61798;48.048;-1.928;2023-04-06T05:32:45;100951.47;;;6.98;100.00
45050;BME280;61798;48.048;-1.928;2023-04-06T05:35:45;101005.53;;;7.25;100.00
45050;BME280;61798;48.048;-1.928;2023-04-06T05:39:10;101026.91;;;7.42;100.00
45050;BME280;61798;48.048;-1.928;2023-04-06T05:42:40;101021.06;;;7.38;100.00
45050;BME280;61798;48.048;-1.928;2023-04-06T05:46:03;101016.22;;;7.34;100.00
45050;BME280;61798;48.048;-1.928;2023-04-06T05:49:06;100996.69;;;7.25;100.00
45050;BME280;61798;48.048;-1.928;2023-04-06T05:53:17;101017.22;;;7.41;100.00
45050;BME280;61798;48.048;-1.928;2023-04-06T05:56:45;101011.41;;;7.46;100.00
45050;BME280;61798;48.048;-1.928;2023-04-06T06:00:20;100938.84;;;7.08;100.00
45050;BME280;61798;48.048;-1.928;2023-04-06T06:04:00;100945.31;;;7.06;100.00
45050;BME280;61798;48.048;-1.928;2023-04-06T06:07:10;101004.28;;;7.55;100.00
45050;BME280;61798;48.048;-1.928;2023-04-06T06:10:33;100961.53;;;7.21;100.00
45050;BME280;61798;48.048;-1.928;2023-04-06T06:13:09;100991.06;;;7.45;100.00
45050;BME280;61798;48.048;-1.928;2023-04-06T06:16:08;100969.22;;;7.24;100.00
45050;BME280;61798;48.048;-1.928;2023-04-06T06:20:11;101029.66;;;7.67;100.00
45050;BME280;61798;48.048;-1.928;2023-04-06T06:22:40;101020.13;;;7.65;100.00
45050;BME280;61798;48.048;-1.928;2023-04-06T06:25:13;101035.16;;;7.74;100.00
45050;BME280;61798;48.048;-1.928;2023-04-06T06:27:55;101030.63;;;7.66;100.00
45050;BME280;61798;48.048;-1.928;2023-04-06T06:30:25;101048.00;;;7.79;100.00
45050;BME280;61798;48.048;-1.928;2023-04-06T06:33:08;101017.78;;;7.61;100.00
45050;BME280;61798;48.048;-1.928;2023-04-06T06:35:22;101054.50;;;7.85;100.00
45050;BME280;61798;48.048;-1.928;2023-04-06T06:38:03;101019.13;;;7.66;100.00
45050;BME280;61798;48.048;-1.928;2023-04-06T06:41:06;100999.78;;;7.55;100.00
45050;BME280;61798;48.048;-1.928;2023-04-06T06:44:17;101007.50;;;7.83;100.00
45050;BME280;61798;48.048;-1.928;2023-04-06T06:47:36;101027.00;;;8.09;100.00
45050;BME280;61798;48.048;-1.928;2023-04-06T06:50:27;101013.00;;;8.07;100.00
45050;BME280;61798;48.048;-1.928;2023-04-06T06:52:42;101015.69;;;8.07;100.00
45050;BME280;61798;48.048;-1.928;2023-04-06T06:55:57;101014.84;;;8.15;100.00
45050;BME280;61798;48.048;-1.928;2023-04-06T07:00:07;100945.63;;;7.63;100.00
45050;BME280;61798;48.048;-1.928;2023-04-06T07:16:04;101070.06;;;8.40;100.00
45050;BME280;61798;48.048;-1.928;2023-04-06T07:19:44;101071.06;;;8.39;100.00
45050;BME280;61798;48.048;-1.928;2023-04-06T07:26:38;101071.22;;;8.54;100.00
45050;BME280;61798;48.048;-1.928;2023-04-06T07:29:33;101075.06;;;8.68;100.00
45050;BME280;61798;48.048;-1.928;2023-04-06T07:37:46;101074.41;;;8.74;100.00
45050;BME280;61798;48.048;-1.928;2023-04-06T07:45:53;101079.38;;;8.94;100.00
45050;BME280;61798;48.048;-1.928;2023-04-06T07:57:25;101072.66;;;9.07;100.00
45050;BME280;61798;48.048;-1.928;2023-04-06T08:00:27;101089.78;;;9.29;100.00
45050;BME280;61798;48.048;-1.928;2023-04-06T08:30:28;101099.84;;;9.91;100.00
45050;BME280;61798;48.048;-1.928;2023-04-06T08:33:03;101100.38;;;9.87;100.00
45050;BME280;61798;48.048;-1.928;2023-04-06T08:36:18;101068.25;;;9.63;100.00
45050;BME280;61798;48.048;-1.928;2023-04-06T08:38:35;101092.59;;;9.68;100.00
45050;BME280;61798;48.048;-1.928;2023-04-06T08:40:42;101087.97;;;9.62;100.00
45050;BME280;61798;48.048;-1.928;2023-04-06T08:43:17;101101.34;;;9.94;100.00
45050;BME280;61798;48.048;-1.928;2023-04-06T08:45:26;101102.66;;;9.98;100.00
45050;BME280;61798;48.048;-1.928;2023-04-06T08:47:34;101091.31;;;9.88;100.00
45050;BME280;61798;48.048;-1.928;2023-04-06T08:49:42;101101.03;;;9.89;100.00
45050;BME280;61798;48.048;-1.928;2023-04-06T08:51:51;101106.34;;;9.97;100.00
45050;BME280;61798;48.048;-1.928;2023-04-06T08:53:58;101097.94;;;10.00;100.00
45050;BME280;61798;48.048;-1.928;2023-04-06T08:56:05;101090.63;;;9.94;100.00
45050;BME280;61798;48.048;-1.928;2023-04-06T08:58:11;101081.75;;;9.93;100.00
45050;BME280;61798;48.048;-1.928;2023-04-06T09:00:18;101076.66;;;10.07;100.00
45050;BME280;61798;48.048;-1.928;2023-04-06T09:02:24;101085.44;;;10.16;100.00
45050;BME280;61798;48.048;-1.928;2023-04-06T09:04:33;101079.72;;;10.19;100.00
45050;BME280;61798;48.048;-1.928;2023-04-06T09:06:39;101110.28;;;10.33;100.00
45050;BME280;61798;48.048;-1.928;2023-04-06T09:08:46;101105.97;;;10.24;100.00
45050;BME280;61798;48.048;-1.928;2023-04-06T09:10:52;101098.19;;;10.14;100.00
45050;BME280;61798;48.048;-1.928;2023-04-06T09:13:05;101112.59;;;10.13;100.00
45050;BME280;61798;48.048;-1.928;2023-04-06T09:15:20;101108.59;;;10.09;100.00
45050;BME280;61798;48.048;-1.928;2023-04-06T09:17:28;101132.47;;;10.19;100.00
45050;BME280;61798;48.048;-1.928;2023-04-06T09:19:46;101105.34;;;9.98;100.00
45050;BME280;61798;48.048;-1.928;2023-04-06T09:22:05;101071.63;;;9.80;100.00
45050;BME280;61798;48.048;-1.928;2023-04-06T09:24:15;101110.75;;;10.13;100.00
45050;BME280;61798;48.048;-1.928;2023-04-06T09:26:23;101126.09;;;10.20;100.00
45050;BME280;61798;48.048;-1.928;2023-04-06T09:28:29;101123.25;;;10.21;100.00
45050;BME280;61798;48.048;-1.928;2023-04-06T09:30:49;101091.88;;;10.07;100.00
45050;BME280;61798;48.048;-1.928;2023-04-06T09:32:57;101124.66;;;10.32;100.00
45050;BME280;61798;48.048;-1.928;2023-04-06T09:35:08;101131.28;;;10.21;100.00
45050;BME280;61798;48.048;-1.928;2023-04-06T09:37:18;101132.41;;;10.27;100.00
45050;BME280;61798;48.048;-1.928;2023-04-06T09:39:25;101138.94;;;10.48;100.00
45050;BME280;61798;48.048;-1.928;2023-04-06T09:41:33;101140.50;;;10.42;100.00
45050;BME280;61798;48.048;-1.928;2023-04-06T09:43:39;101107.28;;;10.04;100.00
45050;BME280;61798;48.048;-1.928;2023-04-06T09:45:45;101128.41;;;9.99;100.00
45050;BME280;61798;48.048;-1.928;2023-04-06T09:47:53;101148.78;;;10.09;100.00
45050;BME280;61798;48.048;-1.928;2023-04-06T09:50:02;101143.81;;;9.97;100.00
45050;BME280;61798;48.048;-1.928;2023-04-06T09:52:10;101167.50;;;10.09;100.00
45050;BME280;61798;48.048;-1.928;2023-04-06T09:54:21;101167.50;;;10.09;100.00
45050;BME280;61798;48.048;-1.928;2023-04-06T09:56:31;101139.78;;;10.01;100.00
45050;BME280;61798;48.048;-1.928;2023-04-06T09:58:40;101148.59;;;10.10;100.00
45050;BME280;61798;48.048;-1.928;2023-04-06T10:00:53;101154.47;;;10.05;100.00
45050;BME280;61798;48.048;-1.928;2023-04-06T10:06:10;101147.31;;;10.30;100.00
45050;BME280;61798;48.048;-1.928;2023-04-06T10:08:19;101146.56;;;10.36;100.00
45050;BME280;61798;48.048;-1.928;2023-04-06T10:10:30;101155.88;;;10.49;100.00
45050;BME280;61798;48.048;-1.928;2023-04-06T10:12:39;101143.56;;;10.63;100.00
45050;BME280;61798;48.048;-1.928;2023-04-06T10:14:47;101133.06;;;10.53;100.00
45050;BME280;61798;48.048;-1.928;2023-04-06T10:16:57;101146.53;;;10.68;100.00
45050;BME280;61798;48.048;-1.928;2023-04-06T10:19:10;101153.84;;;10.51;100.00
45050;BME280;61798;48.048;-1.928;2023-04-06T10:21:23;101139.16;;;10.46;100.00
45050;BME280;61798;48.048;-1.928;2023-04-06T10:23:43;101154.81;;;10.58;100.00
45050;BME280;61798;48.048;-1.928;2023-04-06T10:25:58;101138.78;;;10.50;100.00
45050;BME280;61798;48.048;-1.928;2023-04-06T10:28:11;101144.75;;;10.60;100.00
45050;BME280;61798;48.048;-1.928;2023-04-06T10:30:18;101148.03;;;10.71;100.00
45050;BME280;61798;48.048;-1.928;2023-04-06T10:32:37;101155.03;;;10.72;100.00
45050;BME280;61798;48.048;-1.928;2023-04-06T10:34:44;101151.75;;;10.85;100.00
45050;BME280;61798;48.048;-1.928;2023-04-06T10:36:51;101124.72;;;10.47;100.00
45050;BME280;61798;48.048;-1.928;2023-04-06T10:39:06;101163.88;;;10.57;100.00
45050;BME280;61798;48.048;-1.928;2023-04-06T10:41:17;101165.47;;;10.43;100.00
45050;BME280;61798;48.048;-1.928;2023-04-06T10:43:24;101153.66;;;10.29;100.00
45050;BME280;61798;48.048;-1.928;2023-04-06T10:45:32;101169.31;;;10.40;100.00
45050;BME280;61798;48.048;-1.928;2023-04-06T10:47:40;101168.94;;;10.43;100.00
45050;BME280;61798;48.048;-1.928;2023-04-06T10:49:48;101180.44;;;10.52;100.00
45050;BME280;61798;48.048;-1.928;2023-04-06T10:51:56;101183.66;;;10.47;100.00
45050;BME280;61798;48.048;-1.928;2023-04-06T10:54:07;101139.69;;;10.18;100.00
45050;BME280;61798;48.048;-1.928;2023-04-06T10:56:18;101158.50;;;10.33;100.00
45050;BME280;61798;48.048;-1.928;2023-04-06T10:58:28;101149.47;;;10.58;100.00
45050;BME280;61798;48.048;-1.928;2023-04-06T11:00:44;101142.53;;;11.03;100.00
45050;BME280;61798;48.048;-1.928;2023-04-06T11:02:59;101134.00;;;10.99;100.00
45050;BME280;61798;48.048;-1.928;2023-04-06T11:05:07;101165.16;;;11.76;100.00
45050;BME280;61798;48.048;-1.928;2023-04-06T11:07:23;101151.31;;;11.42;100.00
45050;BME280;61798;48.048;-1.928;2023-04-06T11:09:30;101141.13;;;11.52;100.00
45050;BME280;61798;48.048;-1.928;2023-04-06T11:11:42;101128.09;;;11.34;100.00
45050;BME280;61798;48.048;-1.928;2023-04-06T11:13:58;101140.63;;;11.79;100.00
45050;BME280;61798;48.048;-1.928;2023-04-06T11:16:06;101141.59;;;11.56;100.00
45050;BME280;61798;48.048;-1.928;2023-04-06T11:18:17;101140.38;;;11.44;100.00
45050;BME280;61798;48.048;-1.928;2023-04-06T11:20:23;101147.13;;;11.55;100.00
45050;BME280;61798;48.048;-1.928;2023-04-06T11:22:31;101151.56;;;11.62;100.00
45050;BME280;61798;48.048;-1.928;2023-04-06T11:24:37;101134.66;;;11.31;100.00
45050;BME280;61798;48.048;-1.928;2023-04-06T11:26:51;101137.63;;;11.37;100.00
45050;BME280;61798;48.048;-1.928;2023-04-06T11:28:58;101122.47;;;11.29;100.00
45050;BME280;61798;48.048;-1.928;2023-04-06T11:31:06;101116.06;;;11.45;100.00
45050;BME280;61798;48.048;-1.928;2023-04-06T11:33:20;101100.22;;;11.66;100.00
45050;BME280;61798;48.048;-1.928;2023-04-06T11:35:31;101106.53;;;11.80;100.00
45050;BME280;61798;48.048;-1.928;2023-04-06T11:37:38;101111.06;;;11.79;100.00
45050;BME280;61798;48.048;-1.928;2023-04-06T11:39:54;101111.28;;;11.78;100.00
45050;BME280;61798;48.048;-1.928;2023-04-06T11:42:02;101079.75;;;11.65;100.00
45050;BME280;61798;48.048;-1.928;2023-04-06T11:44:09;101106.59;;;11.87;100.00
45050;BME280;61798;48.048;-1.928;2023-04-06T11:46:18;101101.38;;;11.78;100.00
45050;BME280;61798;48.048;-1.928;2023-04-06T11:48:28;101088.06;;;11.55;100.00
45050;BME280;61798;48.048;-1.928;2023-04-06T11:50:35;101110.09;;;11.65;100.00
45050;BME280;61798;48.048;-1.928;2023-04-06T11:52:43;101104.13;;;11.85;100.00
45050;BME280;61798;48.048;-1.928;2023-04-06T11:54:52;101090.50;;;11.87;100.00
45050;BME280;61798;48.048;-1.928;2023-04-06T11:57:01;101096.06;;;12.07;100.00
45050;BME280;61798;48.048;-1.928;2023-04-06T11:59:09;101080.19;;;11.90;100.00
45050;BME280;61798;48.048;-1.928;2023-04-06T12:01:17;101066.03;;;12.19;100.00
45050;BME280;61798;48.048;-1.928;2023-04-06T12:03:24;101060.66;;;12.19;100.00
45050;BME280;61798;48.048;-1.928;2023-04-06T12:05:32;101053.09;;;12.58;100.00
45050;BME280;61798;48.048;-1.928;2023-04-06T12:07:40;101031.59;;;12.07;100.00
45050;BME280;61798;48.048;-1.928;2023-04-06T12:09:46;101040.06;;;12.26;100.00
45050;BME280;61798;48.048;-1.928;2023-04-06T12:11:53;101047.06;;;12.49;100.00
45050;BME280;61798;48.048;-1.928;2023-04-06T12:14:00;101028.19;;;12.42;100.00
45050;BME280;61798;48.048;-1.928;2023-04-06T12:16:11;101012.56;;;12.53;100.00
45050;BME280;61798;48.048;-1.928;2023-04-06T12:18:19;101042.56;;;12.56;100.00
45050;BME280;61798;48.048;-1.928;2023-04-06T12:20:26;101045.59;;;12.82;100.00
45050;BME280;61798;48.048;-1.928;2023-04-06T12:22:34;101041.81;;;12.69;100.00
45050;BME280;61798;48.048;-1.928;2023-04-06T12:24:41;101046.66;;;12.81;100.00
45050;BME280;61798;48.048;-1.928;2023-04-06T12:26:49;101060.66;;;12.69;100.00
45050;BME280;61798;48.048;-1.928;2023-04-06T12:28:56;101055.75;;;12.51;100.00
45050;BME280;61798;48.048;-1.928;2023-04-06T12:31:03;101029.16;;;12.63;100.00
45050;BME280;61798;48.048;-1.928;2023-04-06T12:33:11;101057.84;;;12.85;100.00
45050;BME280;61798;48.048;-1.928;2023-04-06T12:35:17;101051.53;;;13.06;100.00
45050;BME280;61798;48.048;-1.928;2023-04-06T12:37:28;101037.63;;;12.96;100.00
45050;BME280;61798;48.048;-1.928;2023-04-06T12:39:34;101062.25;;;12.99;100.00
45050;BME280;61798;48.048;-1.928;2023-04-06T12:41:41;101055.16;;;12.85;100.00
45050;BME280;61798;48.048;-1.928;2023-04-06T12:43:49;101088.28;;;12.92;100.00
45050;BME280;61798;48.048;-1.928;2023-04-06T12:45:59;101066.84;;;12.70;100.00
45050;BME280;61798;48.048;-1.928;2023-04-06T12:48:08;101058.88;;;12.84;100.00
45050;BME280;61798;48.048;-1.928;2023-04-06T12:50:16;101067.13;;;12.82;100.00
45050;BME280;61798;48.048;-1.928;2023-04-06T12:52:23;101096.34;;;12.85;100.00
45050;BME280;61798;48.048;-1.928;2023-04-06T12:54:31;101088.06;;;12.87;100.00
45050;BME280;61798;48.048;-1.928;2023-04-06T12:56:38;101055.09;;;12.78;100.00
45050;BME280;61798;48.048;-1.928;2023-04-06T12:58:45;101058.59;;;13.14;100.00
45050;BME280;61798;48.048;-1.928;2023-04-06T13:00:52;101030.94;;;12.85;100.00
45050;BME280;61798;48.048;-1.928;2023-04-06T13:03:00;101076.66;;;13.20;100.00
45050;BME280;61798;48.048;-1.928;2023-04-06T13:05:07;101061.31;;;12.78;100.00
45050;BME280;61798;48.048;-1.928;2023-04-06T13:07:14;101065.47;;;12.81;100.00
45050;BME280;61798;48.048;-1.928;2023-04-06T13:09:21;101082.28;;;12.90;100.00
45050;BME280;61798;48.048;-1.928;2023-04-06T13:11:31;101060.72;;;12.54;100.00
45050;BME280;61798;48.048;-1.928;2023-04-06T13:13:39;101057.16;;;12.47;100.00
45050;BME280;61798;48.048;-1.928;2023-04-06T13:15:46;101069.16;;;12.73;100.00
45050;BME280;61798;48.048;-1.928;2023-04-06T13:17:55;101060.28;;;12.79;100.00
45050;BME280;61798;48.048;-1.928;2023-04-06T13:20:03;101057.59;;;12.79;100.00
45050;BME280;61798;48.048;-1.928;2023-04-06T13:22:10;101075.59;;;12.79;100.00
45050;BME280;61798;48.048;-1.928;2023-04-06T13:24:18;101061.25;;;12.65;100.00
45050;BME280;61798;48.048;-1.928;2023-04-06T13:26:26;101054.44;;;12.69;100.00
45050;BME280;61798;48.048;-1.928;2023-04-06T13:28:35;101062.56;;;12.83;100.00
45050;BME280;61798;48.048;-1.928;2023-04-06T13:30:48;101067.22;;;12.96;100.00
45050;BME280;61798;48.048;-1.928;2023-04-06T13:32:55;101057.06;;;12.98;100.00
45050;BME280;61798;48.048;-1.928;2023-04-06T13:35:02;101064.03;;;13.21;100.00
45050;BME280;61798;48.048;-1.928;2023-04-06T13:37:14;101036.94;;;13.29;100.00
45050;BME280;61798;48.048;-1.928;2023-04-06T13:39:23;101033.44;;;13.42;100.00
45050;BME280;61798;48.048;-1.928;2023-04-06T13:41:30;101021.53;;;13.66;100.00
45050;BME280;61798;48.048;-1.928;2023-04-06T13:43:38;101037.47;;;13.60;100.00
45050;BME280;61798;48.048;-1.928;2023-04-06T13:45:55;101044.53;;;13.61;100.00
45050;BME280;61798;48.048;-1.928;2023-04-06T13:48:03;101026.19;;;13.29;100.00
45050;BME280;61798;48.048;-1.928;2023-04-06T13:50:11;101018.06;;;13.22;100.00
45050;BME280;61798;48.048;-1.928;2023-04-06T13:52:18;101010.06;;;13.50;100.00
45050;BME280;61798;48.048;-1.928;2023-04-06T13:54:27;101013.59;;;13.43;100.00
45050;BME280;61798;48.048;-1.928;2023-04-06T13:56:35;101035.75;;;12.96;100.00
45050;BME280;61798;48.048;-1.928;2023-04-06T13:58:42;101022.81;;;12.78;100.00
45050;BME280;61798;48.048;-1.928;2023-04-06T14:00:51;101024.75;;;12.91;100.00
45050;BME280;61798;48.048;-1.928;2023-04-06T14:02:59;101035.84;;;12.74;100.00
45050;BME280;61798;48.048;-1.928;2023-04-06T14:05:07;101055.78;;;12.87;100.00
45050;BME280;61798;48.048;-1.928;2023-04-06T14:07:15;101048.81;;;12.99;100.00
45050;BME280;61798;48.048;-1.928;2023-04-06T14:09:23;101054.28;;;12.77;100.00
45050;BME280;61798;48.048;-1.928;2023-04-06T14:11:30;101057.03;;;12.91;100.00
45050;BME280;61798;48.048;-1.928;2023-04-06T14:13:39;101054.34;;;12.91;100.00
45050;BME280;61798;48.048;-1.928;2023-04-06T14:15:46;101043.00;;;12.96;100.00
45050;BME280;61798;48.048;-1.928;2023-04-06T14:17:53;101052.19;;;13.15;100.00
45050;BME280;61798;48.048;-1.928;2023-04-06T14:20:04;101029.56;;;13.03;100.00
45050;BME280;61798;48.048;-1.928;2023-04-06T14:22:12;101043.09;;;13.16;100.00
45050;BME280;61798;48.048;-1.928;2023-04-06T14:24:20;101024.56;;;12.93;100.00
45050;BME280;61798;48.048;-1.928;2023-04-06T14:26:27;101020.28;;;13.05;100.00
45050;BME280;61798;48.048;-1.928;2023-04-06T14:28:35;101020.31;;;13.19;100.00
45050;BME280;61798;48.048;-1.928;2023-04-06T14:30:43;101017.28;;;13.29;100.00
45050;BME280;61798;48.048;-1.928;2023-04-06T14:32:49;101016.69;;;13.40;100.00
45050;BME280;61798;48.048;-1.928;2023-04-06T14:34:57;101021.34;;;13.88;100.00
45050;BME280;61798;48.048;-1.928;2023-04-06T14:37:04;101008.50;;;13.69;100.00
45050;BME280;61798;48.048;-1.928;2023-04-06T14:39:11;101023.00;;;13.68;100.00
45050;BME280;61798;48.048;-1.928;2023-04-06T14:41:22;101029.56;;;13.59;100.00
45050;BME280;61798;48.048;-1.928;2023-04-06T14:43:30;101011.50;;;13.46;100.00
45050;BME280;61798;48.048;-1.928;2023-04-06T14:45:37;101023.69;;;13.35;100.00
45050;BME280;61798;48.048;-1.928;2023-04-06T14:47:46;101008.31;;;13.15;100.00
45050;BME280;61798;48.048;-1.928;2023-04-06T14:49:53;100998.25;;;12.81;100.00
45050;BME280;61798;48.048;-1.928;2023-04-06T14:52:00;101015.84;;;12.84;100.00
45050;BME280;61798;48.048;-1.928;2023-04-06T14:54:07;100999.44;;;12.78;100.00
45050;BME280;61798;48.048;-1.928;2023-04-06T14:56:19;101022.28;;;12.89;100.00
45050;BME280;61798;48.048;-1.928;2023-04-06T14:58:38;101021.16;;;13.13;100.00
45050;BME280;61798;48.048;-1.928;2023-04-06T15:00:46;101036.03;;;13.08;100.00
45050;BME280;61798;48.048;-1.928;2023-04-06T15:02:53;101034.53;;;13.06;100.00
45050;BME280;61798;48.048;-1.928;2023-04-06T15:05:00;101020.03;;;12.93;100.00
45050;BME280;61798;48.048;-1.928;2023-04-06T15:07:07;101016.78;;;13.05;100.00
45050;BME280;61798;48.048;-1.928;2023-04-06T15:09:15;101032.53;;;13.15;100.00
45050;BME280;61798;48.048;-1.928;2023-04-06T15:11:23;101006.22;;;13.10;100.00
45050;BME280;61798;48.048;-1.928;2023-04-06T15:13:30;101003.75;;;13.15;100.00
45050;BME280;61798;48.048;-1.928;2023-04-06T15:15:37;100976.63;;;13.10;100.00
45050;BME280;61798;48.048;-1.928;2023-04-06T15:17:45;101005.00;;;13.19;100.00
45050;BME280;61798;48.048;-1.928;2023-04-06T15:19:52;100967.84;;;12.45;100.00
45050;BME280;61798;48.048;-1.928;2023-04-06T15:21:59;101013.06;;;12.70;100.00
45050;BME280;61798;48.048;-1.928;2023-04-06T15:24:09;101014.31;;;12.74;100.00
45050;BME280;61798;48.048;-1.928;2023-04-06T15:26:16;100989.22;;;12.60;100.00
45050;BME280;61798;48.048;-1.928;2023-04-06T15:28:22;100971.22;;;12.25;100.00
45050;BME280;61798;48.048;-1.928;2023-04-06T15:30:28;100982.16;;;12.52;100.00
45050;BME280;61798;48.048;-1.928;2023-04-06T15:32:35;100990.13;;;12.39;100.00
45050;BME280;61798;48.048;-1.928;2023-04-06T15:34:41;101020.09;;;12.71;100.00
45050;BME280;61798;48.048;-1.928;2023-04-06T15:36:47;101022.06;;;12.91;100.00
45050;BME280;61798;48.048;-1.928;2023-04-06T15:38:53;101021.34;;;12.40;100.00
45050;BME280;61798;48.048;-1.928;2023-04-06T15:40:59;101024.81;;;12.62;100.00
45050;BME280;61798;48.048;-1.928;2023-04-06T15:43:05;101032.66;;;12.99;100.00
45050;BME280;61798;48.048;-1.928;2023-04-06T15:45:11;101012.81;;;13.00;100.00
45050;BME280;61798;48.048;-1.928;2023-04-06T15:47:17;101011.44;;;12.76;100.00
45050;BME280;61798;48.048;-1.928;2023-04-06T15:49:23;101006.34;;;12.95;100.00
45050;BME280;61798;48.048;-1.928;2023-04-06T15:51:29;101023.59;;;13.07;100.00
45050;BME280;61798;48.048;-1.928;2023-04-06T15:53:36;101001.94;;;12.80;100.00
45050;BME280;61798;48.048;-1.928;2023-04-06T15:55:43;100996.69;;;13.00;100.00